Time;durP1;ratioP1;P1;durP2;ratioP2;P2;SDS_P1;SDS_P2;PMS_P1;PMS_P2;Temp;Humidity;BMP_temperature;BMP_pressure;BME280_temperature;BME280_humidity;BME280_pressure;Samples;Min_cycle;Max_cycle;Signal;HPM_P1;HPM_P2
2023/01/12 00:02:12;;;;;;;15.32;5.53;;;8.20;99.90;;;;;;4996470;27;94765;-33
2023/01/12 00:04:37;;;;;;;13.18;4.47;;;8.20;99.90;;;;;;4997368;27;92621;-32
2023/01/12 00:07:07;;;;;;;10.25;4.63;;;8.20;99.90;;;;;;4996829;28;93539;-33
2023/01/12 00:09:33;;;;;;;12.00;4.28;;;8.30;99.90;;;;;;4995962;27;94381;-34
2023/01/12 00:11:59;;;;;;;10.52;3.90;;;8.20;99.90;;;;;;4995832;27;95419;-34
2023/01/12 00:14:24;;;;;;;7.72;3.55;;;8.20;99.90;;;;;;5010135;28;95131;-35
2023/01/12 00:16:50;;;;;;;10.10;3.78;;;8.30;99.90;;;;;;4996573;27;93599;-34
2023/01/12 00:19:18;;;;;;;5.80;2.75;;;8.20;99.90;;;;;;4996627;27;95311;-32
2023/01/12 00:22:10;;;;;;;6.78;3.75;;;8.30;99.90;;;;;;4996145;27;93906;-32
2023/01/12 00:24:38;;;;;;;10.93;5.13;;;8.30;99.90;;;;;;4996328;28;92793;-35
2023/01/12 00:27:06;;;;;;;11.25;4.20;;;8.30;99.90;;;;;;4997021;28;93443;-33
2023/01/12 00:29:32;;;;;;;8.98;3.95;;;8.20;99.90;;;;;;4996366;28;94330;-32
2023/01/12 00:31:59;;;;;;;9.00;4.55;;;8.30;99.90;;;;;;4995775;27;93314;-35
2023/01/12 00:34:26;;;;;;;13.35;5.20;;;8.40;99.90;;;;;;5006012;28;94607;-34
2023/01/12 00:36:52;;;;;;;15.02;4.72;;;8.40;99.90;;;;;;5000011;27;94334;-32
2023/01/12 00:39:18;;;;;;;11.52;4.72;;;8.40;99.90;;;;;;4995321;28;94336;-34
2023/01/12 00:47:13;;;;;;;13.07;4.85;;;8.30;99.90;;;;;;5002518;27;93541;-33
2023/01/12 00:49:40;;;;;;;18.95;6.35;;;8.30;99.90;;;;;;4995612;27;94878;-33
2023/01/12 00:52:07;;;;;;;8.50;4.60;;;8.30;99.90;;;;;;4996544;27;94058;-34
2023/01/12 00:54:33;;;;;;;10.67;4.37;;;8.20;99.90;;;;;;4999293;28;93542;-34
2023/01/12 00:57:00;;;;;;;13.55;6.88;;;8.30;99.90;;;;;;5006801;28;94112;-34
2023/01/12 00:59:26;;;;;;;16.65;5.40;;;8.30;99.90;;;;;;4995471;27;95023;-32
2023/01/12 01:01:52;;;;;;;13.27;5.82;;;8.30;99.90;;;;;;4995205;27;95314;-32
2023/01/12 01:04:17;;;;;;;12.18;5.57;;;8.30;99.90;;;;;;4996333;28;93610;-32
2023/01/12 01:06:43;;;;;;;17.92;5.60;;;8.30;99.90;;;;;;5002366;28;93988;-33
2023/01/12 01:09:09;;;;;;;14.05;5.18;;;8.30;99.90;;;;;;4999086;28;94579;-35
2023/01/12 01:11:35;;;;;;;18.65;6.10;;;8.40;99.90;;;;;;4998707;28;94168;-33
2023/01/12 01:14:02;;;;;;;12.57;5.07;;;8.40;99.90;;;;;;4998707;28;94133;-33
2023/01/12 01:16:28;;;;;;;14.07;4.45;;;8.40;99.90;;;;;;4999583;28;92531;-33
2023/01/12 01:18:54;;;;;;;14.70;4.85;;;8.40;99.90;;;;;;4998999;28;93440;-34
2023/01/12 01:21:20;;;;;;;17.95;5.82;;;8.40;99.90;;;;;;4999104;27;94621;-34
2023/01/12 01:23:45;;;;;;;18.90;5.40;;;8.40;99.90;;;;;;4998980;28;94242;-31
2023/01/12 01:26:14;;;;;;;19.40;6.35;;;8.40;99.90;;;;;;4998776;27;93033;-34
2023/01/12 01:28:40;;;;;;;13.20;4.75;;;8.40;99.90;;;;;;4997996;27;94882;-34
2023/01/12 01:31:14;;;;;;;9.02;5.10;;;8.40;99.90;;;;;;5009201;28;95667;-34
2023/01/12 01:33:41;;;;;;;15.10;4.93;;;8.40;99.90;;;;;;5001468;27;93227;-33
2023/01/12 01:36:07;;;;;;;15.27;6.43;;;8.40;99.90;;;;;;4998976;28;94096;-34
2023/01/12 01:38:33;;;;;;;10.55;4.95;;;8.40;99.90;;;;;;5000135;28;94410;-32
2023/01/12 01:40:59;;;;;;;15.05;5.30;;;8.40;99.90;;;;;;5010947;27;94843;-34
2023/01/12 01:43:27;;;;;;;19.90;5.93;;;8.30;99.90;;;;;;4999571;28;94347;-34
2023/01/12 01:45:53;;;;;;;;;;;8.30;99.90;;;;;;4999400;27;92819;-36
2023/01/12 01:48:19;;;;;;;7.50;3.95;;;8.40;99.90;;;;;;4999545;27;93678;-34
2023/01/12 01:50:56;;;;;;;18.13;5.78;;;8.40;99.90;;;;;;4998820;27;94447;-34
2023/01/12 01:53:24;;;;;;;14.93;5.47;;;8.40;99.90;;;;;;4999177;27;95105;-32
2023/01/12 01:55:57;;;;;;;15.67;5.73;;;8.40;99.90;;;;;;4997681;28;92596;-34
2023/01/12 01:58:37;;;;;;;11.95;4.97;;;8.40;99.90;;;;;;4998827;27;94894;-33
2023/01/12 02:01:03;;;;;;;12.18;5.70;;;8.40;99.90;;;;;;4998346;27;95627;-35
2023/01/12 02:03:30;;;;;;;16.60;5.72;;;8.40;99.90;;;;;;4999458;27;92045;-32
2023/01/12 02:05:56;;;;;;;13.05;6.95;;;8.50;99.90;;;;;;4998325;27;93105;-34
2023/01/12 02:08:25;;;;;;;21.15;6.32;;;8.50;99.90;;;;;;4998364;27;93926;-36
2023/01/12 02:10:52;;;;;;;17.65;5.63;;;8.40;99.90;;;;;;5012552;27;94559;-33
2023/01/12 02:16:22;;;;;;;16.73;6.00;;;8.40;99.90;;;;;;4997546;27;94690;-32
2023/01/12 02:18:48;;;;;;;17.08;5.85;;;8.50;99.90;;;;;;4997421;27;96524;-32
2023/01/12 02:21:40;;;;;;;17.77;6.07;;;8.40;99.90;;;;;;4997642;27;95152;-32
2023/01/12 02:24:11;;;;;;;14.63;6.65;;;8.40;99.90;;;;;;4967490;28;93732;-35
2023/01/12 02:27:18;;;;;;;11.27;5.72;;;8.40;99.90;;;;;;5000769;27;94722;-32
2023/01/12 02:29:50;;;;;;;10.05;5.40;;;8.40;99.90;;;;;;4997522;27;94633;-32
2023/01/12 02:32:18;;;;;;;14.38;5.38;;;8.40;99.90;;;;;;4998114;27;94929;-33
2023/01/12 02:35:06;;;;;;;12.77;4.70;;;8.40;99.90;;;;;;4997572;27;93776;-34
2023/01/12 02:37:47;;;;;;;15.00;6.75;;;8.40;99.90;;;;;;4998720;28;93620;-35
2023/01/12 02:40:35;;;;;;;16.65;5.50;;;8.40;99.90;;;;;;4997479;27;96540;-32
2023/01/12 02:43:12;;;;;;;18.05;5.43;;;8.40;99.90;;;;;;4997120;27;94474;-32
2023/01/12 02:45:53;;;;;;;11.30;5.78;;;8.40;99.90;;;;;;4997486;27;94179;-33
2023/01/12 02:48:28;;;;;;;14.63;6.43;;;8.40;99.90;;;;;;4997269;28;92266;-35
2023/01/12 02:51:07;;;;;;;12.35;6.10;;;8.40;99.90;;;;;;4998265;28;95150;-34
2023/01/12 02:53:44;;;;;;;17.67;7.93;;;8.50;99.90;;;;;;4997581;27;94259;-32
2023/01/12 02:56:32;;;;;;;17.88;6.30;;;8.50;99.90;;;;;;4998503;28;94830;-32
2023/01/12 02:59:02;;;;;;;23.70;7.30;;;8.40;99.90;;;;;;4997243;27;93403;-33
2023/01/12 03:01:29;;;;;;;12.93;6.38;;;8.50;99.90;;;;;;4997875;27;96197;-34
2023/01/12 03:04:00;;;;;;;17.95;7.43;;;8.50;99.90;;;;;;5011038;27;94245;-32
2023/01/12 03:06:39;;;;;;;12.20;7.40;;;8.40;99.90;;;;;;4997993;27;93236;-33
2023/01/12 03:09:04;;;;;;;15.27;6.82;;;8.50;99.90;;;;;;4997591;27;93784;-33
2023/01/12 03:11:30;;;;;;;11.88;6.72;;;8.50;99.90;;;;;;4996681;28;95578;-34
2023/01/12 03:13:59;;;;;;;16.45;6.75;;;8.50;99.90;;;;;;4997154;27;95388;-33
2023/01/12 03:16:29;;;;;;;20.40;5.97;;;8.50;99.90;;;;;;4998061;27;92934;-33
2023/01/12 03:19:01;;;;;;;14.32;6.80;;;8.50;99.90;;;;;;4997376;28;93526;-33
2023/01/12 03:21:37;;;;;;;17.02;7.72;;;8.50;99.90;;;;;;4978988;27;94093;-33
2023/01/12 03:24:11;;;;;;;20.50;7.88;;;8.40;99.90;;;;;;5007920;28;94498;-33
2023/01/12 03:26:44;;;;;;;23.10;7.35;;;8.40;99.90;;;;;;4999555;27;94936;-34
2023/01/12 03:29:21;;;;;;;16.05;7.55;;;8.40;99.90;;;;;;5007359;28;92471;-32
2023/01/12 03:31:47;;;;;;;14.02;6.22;;;8.40;99.90;;;;;;5013157;27;94808;-33
2023/01/12 03:34:13;;;;;;;16.05;7.65;;;8.40;99.90;;;;;;4997056;28;94163;-35
2023/01/12 03:36:51;;;;;;;20.25;8.15;;;8.40;99.90;;;;;;4995864;28;95373;-33
2023/01/12 03:39:36;;;;;;;;;;;8.50;99.90;;;;;;4997412;28;94742;-32
2023/01/12 03:42:27;;;;;;;19.20;7.88;;;8.50;99.90;;;;;;4998064;27;95035;-35
2023/01/12 03:45:21;;;;;;;14.60;7.50;;;8.50;99.90;;;;;;4996195;27;94666;-32
2023/01/12 03:47:54;;;;;;;20.25;7.03;;;8.50;99.90;;;;;;4989602;27;92588;-34
2023/01/12 03:50:42;;;;;;;16.55;6.82;;;8.50;99.90;;;;;;4996567;28;92765;-35
2023/01/12 03:53:10;;;;;;;12.23;5.97;;;8.50;99.90;;;;;;4996061;28;95033;-32
2023/01/12 03:55:38;;;;;;;12.70;7.13;;;8.50;99.90;;;;;;4996596;28;95355;-36
2023/01/12 03:58:04;;;;;;;8.30;6.15;;;8.60;99.90;;;;;;4997233;27;94383;-32
2023/01/12 04:00:30;;;;;;;10.05;6.15;;;8.60;99.90;;;;;;4996561;27;93616;-32
2023/01/12 04:03:12;;;;;;;12.95;5.70;;;8.60;99.90;;;;;;4994980;27;95906;-34
2023/01/12 04:05:38;;;;;;;12.18;6.45;;;8.60;99.90;;;;;;4995867;28;95791;-32
2023/01/12 04:08:04;;;;;;;9.80;6.20;;;8.50;99.90;;;;;;4997142;28;93061;-35
2023/01/12 04:10:30;;;;;;;10.45;4.97;;;8.60;99.90;;;;;;4997081;27;93718;-32
2023/01/12 04:12:56;;;;;;;9.50;5.32;;;8.60;99.90;;;;;;4996157;27;94717;-33
2023/01/12 04:15:22;;;;;;;17.38;6.65;;;8.70;99.90;;;;;;4996235;27;94734;-34
2023/01/12 04:17:47;;;;;;;11.73;6.88;;;8.60;99.90;;;;;;4996481;27;92973;-33
2023/01/12 04:20:13;;;;;;;8.65;5.70;;;8.60;99.90;;;;;;4996967;28;91321;-33
2023/01/12 04:22:42;;;;;;;5.78;4.47;;;8.60;99.90;;;;;;4997075;28;94187;-33
2023/01/12 04:25:18;;;;;;;7.90;4.88;;;8.60;99.90;;;;;;4996190;27;94273;-34
2023/01/12 04:27:48;;;;;;;7.05;4.70;;;8.60;99.90;;;;;;4995801;28;94421;-32
2023/01/12 04:30:16;;;;;;;11.85;6.10;;;8.60;99.90;;;;;;4996480;27;93235;-34
2023/01/12 04:32:43;;;;;;;7.88;4.75;;;8.60;99.90;;;;;;4995370;28;94243;-34
2023/01/12 04:35:11;;;;;;;6.15;4.55;;;8.60;99.90;;;;;;4996485;27;94492;-33
2023/01/12 04:37:37;;;;;;;8.38;4.68;;;8.60;99.90;;;;;;4996648;27;93168;-31
2023/01/12 04:40:03;;;;;;;7.88;4.30;;;8.70;99.90;;;;;;4995179;27;94470;-32
2023/01/12 04:45:13;;;;;;;8.27;4.18;;;8.70;99.90;;;;;;4999880;27;94573;-34
2023/01/12 04:47:39;;;;;;;10.40;3.42;;;8.70;99.90;;;;;;5000318;27;93331;-35
2023/01/12 04:50:05;;;;;;;8.23;3.45;;;8.70;99.90;;;;;;4999430;27;93863;-32
2023/01/12 04:52:31;;;;;;;4.15;3.08;;;8.80;99.90;;;;;;4998812;27;95110;-32
2023/01/12 04:54:56;;;;;;;5.88;3.28;;;8.70;99.90;;;;;;4999235;27;95406;-33
2023/01/12 04:57:22;;;;;;;3.60;2.50;;;8.70;99.90;;;;;;5014121;27;93125;-34
2023/01/12 04:59:47;;;;;;;3.35;2.75;;;8.70;99.90;;;;;;4999026;28;93382;-33
2023/01/12 05:02:13;;;;;;;5.03;2.65;;;8.70;99.90;;;;;;4999106;27;94565;-33
2023/01/12 05:04:39;;;;;;;4.40;2.45;;;8.70;99.90;;;;;;4998855;28;94541;-34
2023/01/12 05:07:04;;;;;;;11.18;3.53;;;8.60;99.90;;;;;;5000261;27;94362;-33
2023/01/12 05:12:14;;;;;;;6.15;2.22;;;8.70;99.90;;;;;;4999014;27;94683;-34
2023/01/12 05:14:40;;;;;;;5.20;2.60;;;8.60;99.90;;;;;;5002398;28;93934;-34
2023/01/12 05:17:05;;;;;;;4.13;2.20;;;8.70;99.90;;;;;;5008046;28;95693;-33
2023/01/12 05:19:31;;;;;;;6.97;2.67;;;8.60;99.90;;;;;;5003691;27;94480;-33
2023/01/12 05:21:56;;;;;;;9.50;2.00;;;8.60;99.90;;;;;;4998442;27;93661;-34
2023/01/12 05:24:22;;;;;;;5.70;2.58;;;8.70;99.90;;;;;;4999470;27;94488;-33
2023/01/12 05:26:47;;;;;;;3.92;2.22;;;8.80;99.90;;;;;;5003509;27;94575;-34
2023/01/12 05:29:13;;;;;;;4.65;2.28;;;8.70;99.90;;;;;;5008134;27;94185;-31
2023/01/12 05:31:39;;;;;;;6.43;2.90;;;8.70;99.90;;;;;;4998107;27;94967;-35
2023/01/12 05:34:04;;;;;;;3.70;2.42;;;8.70;99.90;;;;;;5007984;28;94379;-35
2023/01/12 05:36:30;;;;;;;4.75;2.45;;;8.60;99.90;;;;;;5004519;27;94066;-33
2023/01/12 05:38:56;;;;;;;3.65;2.03;;;8.60;99.90;;;;;;4998827;27;93591;-34
2023/01/12 05:41:24;;;;;;;7.18;1.88;;;8.80;99.90;;;;;;4998530;28;95666;-32
2023/01/12 05:43:50;;;;;;;2.97;1.95;;;8.70;99.90;;;;;;4998097;28;95587;-34
2023/01/12 05:46:24;;;;;;;2.92;2.10;;;8.70;99.90;;;;;;4998960;27;93424;-32
2023/01/12 05:48:51;;;;;;;3.53;2.17;;;8.70;99.90;;;;;;4998685;27;93066;-33
2023/01/12 05:51:17;;;;;;;2.47;1.30;;;8.60;99.90;;;;;;4998354;28;94272;-32
2023/01/12 05:53:43;;;;;;;8.18;2.50;;;8.60;99.90;;;;;;4997703;27;94590;-34
2023/01/12 05:56:18;;;;;;;5.32;2.70;;;8.60;99.90;;;;;;4980456;28;94356;-31
2023/01/12 05:58:49;;;;;;;5.00;2.17;;;8.70;99.90;;;;;;4998353;27;92090;-34
2023/01/12 06:01:14;;;;;;;2.92;2.15;;;8.70;99.90;;;;;;4998320;27;94305;-32
2023/01/12 06:03:40;;;;;;;2.25;2.00;;;8.60;99.90;;;;;;4998410;27;95155;-35
2023/01/12 06:06:06;;;;;;;4.22;2.25;;;8.60;99.90;;;;;;4998127;28;95214;-34
2023/01/12 06:08:31;;;;;;;5.00;2.22;;;8.60;99.90;;;;;;4998108;27;93462;-33
2023/01/12 06:11:01;;;;;;;2.47;1.92;;;8.60;99.90;;;;;;4998341;27;95855;-33
2023/01/12 06:16:11;;;;;;;6.32;3.00;;;8.70;99.90;;;;;;4998381;27;93565;-33
2023/01/12 06:18:38;;;;;;;3.00;1.92;;;8.70;99.90;;;;;;4980346;28;92250;-34
2023/01/12 06:21:06;;;;;;;2.38;2.15;;;8.70;99.90;;;;;;4998158;28;94454;-34
2023/01/12 06:23:32;;;;;;;3.30;1.63;;;8.70;99.90;;;;;;4997882;28;94287;-35
2023/01/12 06:26:05;;;;;;;8.63;3.25;;;8.60;99.90;;;;;;4998642;28;93434;-33
2023/01/12 06:28:31;;;;;;;6.93;2.63;;;8.70;99.90;;;;;;4998086;27;92547;-32
2023/01/12 06:30:58;;;;;;;9.05;2.78;;;8.70;99.90;;;;;;4997581;27;95485;-33
2023/01/12 06:33:25;;;;;;;5.85;1.85;;;8.80;99.90;;;;;;4997958;27;95188;-32
2023/01/12 06:35:51;;;;;;;4.18;2.72;;;8.80;99.90;;;;;;4997328;28;92979;-33
2023/01/12 06:38:18;;;;;;;7.80;3.17;;;8.80;99.90;;;;;;4997955;27;94158;-35
2023/01/12 06:40:43;;;;;;;3.95;2.50;;;8.70;99.90;;;;;;4997845;28;95058;-32
2023/01/12 06:43:09;;;;;;;3.42;2.33;;;8.80;99.90;;;;;;4997464;27;95448;-32
2023/01/12 06:45:35;;;;;;;3.58;2.15;;;8.90;99.90;;;;;;4998311;28;94259;-34
2023/01/12 06:48:01;;;;;;;3.95;1.92;;;8.80;99.90;;;;;;5009249;28;92658;-35
2023/01/12 06:50:26;;;;;;;7.70;1.85;;;8.90;99.90;;;;;;5014827;27;94551;-33
2023/01/12 06:52:52;;;;;;;1.67;1.45;;;8.90;99.90;;;;;;5005270;28;96700;-32
2023/01/12 06:55:18;;;;;;;3.15;1.75;;;8.90;99.90;;;;;;5002341;28;94971;-32
2023/01/12 06:57:43;;;;;;;1.42;1.20;;;8.90;99.90;;;;;;5003961;28;93085;-34
2023/01/12 07:00:12;;;;;;;1.83;1.67;;;8.90;99.90;;;;;;5020933;27;94968;-36
2023/01/12 07:02:38;;;;;;;7.97;2.42;;;9.00;99.90;;;;;;5000717;28;94279;-32
2023/01/12 07:05:04;;;;;;;2.65;2.10;;;9.00;99.90;;;;;;5019676;27;94263;-34
2023/01/12 07:07:30;;;;;;;1.35;1.25;;;9.10;99.90;;;;;;5009453;27;92189;-32
2023/01/12 07:09:56;;;;;;;2.00;1.80;;;9.10;99.90;;;;;;5018422;27;95018;-33
2023/01/12 07:12:21;;;;;;;2.95;1.90;;;9.20;99.90;;;;;;5008535;27;94481;-32
2023/01/12 07:14:47;;;;;;;3.35;2.00;;;9.10;99.90;;;;;;5005235;27;93145;-33
2023/01/12 07:17:13;;;;;;;1.65;1.55;;;9.20;99.90;;;;;;4997997;28;94037;-32
2023/01/12 07:19:38;;;;;;;3.08;2.03;;;9.20;99.90;;;;;;4995886;27;95711;-32
2023/01/12 07:22:04;;;;;;;2.33;1.48;;;9.20;99.90;;;;;;5009208;28;95503;-34
2023/01/12 07:24:30;;;;;;;1.55;1.33;;;9.20;99.90;;;;;;5017537;27;94497;-32
2023/01/12 07:26:57;;;;;;;3.75;1.33;;;9.20;99.90;;;;;;4997628;28;94582;-35
2023/01/12 07:29:24;;;;;;;1.48;1.38;;;9.30;99.90;;;;;;5027631;27;94607;-32
2023/01/12 07:31:49;;;;;;;2.38;1.30;;;9.30;99.90;;;;;;5017056;27;94196;-34
2023/01/12 07:34:15;;;;;;;1.95;1.58;;;9.30;99.90;;;;;;5018273;27;93238;-35
2023/01/12 07:36:41;;;;;;;1.15;1.10;;;9.30;99.90;;;;;;5021144;27;91406;-32
2023/01/12 07:39:08;;;;;;;1.75;1.65;;;9.30;99.90;;;;;;5019019;27;95354;-34
2023/01/12 07:44:18;;;;;;;2.40;1.58;;;9.30;99.90;;;;;;5017920;27;95421;-33
2023/01/12 07:46:43;;;;;;;4.38;1.73;;;9.30;99.90;;;;;;5020383;27;93206;-33
2023/01/12 07:49:09;;;;;;;2.55;2.00;;;9.30;99.90;;;;;;5017755;27;94498;-33
2023/01/12 07:51:35;;;;;;;6.60;1.60;;;9.30;99.90;;;;;;5019720;27;94888;-34
2023/01/12 07:54:00;;;;;;;1.65;1.30;;;9.40;99.90;;;;;;5012791;27;92239;-32
2023/01/12 07:56:26;;;;;;;1.88;1.52;;;9.40;99.90;;;;;;5017625;27;92268;-32
2023/01/12 07:58:52;;;;;;;1.48;1.38;;;9.50;99.90;;;;;;5020647;27;94577;-34
2023/01/12 08:01:17;;;;;;;1.77;1.67;;;9.50;99.90;;;;;;5018551;27;94185;-32
2023/01/12 08:03:43;;;;;;;2.25;1.50;;;9.40;99.90;;;;;;5020989;27;93088;-32
2023/01/12 08:06:09;;;;;;;2.00;1.80;;;9.50;99.90;;;;;;5017888;27;94230;-34
2023/01/12 08:08:34;;;;;;;2.65;1.58;;;9.50;99.90;;;;;;5007904;27;95652;-33
2023/01/12 08:11:02;;;;;;;2.45;1.52;;;9.50;99.90;;;;;;5004513;28;94915;-33
2023/01/12 08:13:27;;;;;;;2.20;2.00;;;9.50;99.90;;;;;;5005005;27;93947;-33
2023/01/12 08:15:54;;;;;;;4.88;2.10;;;9.40;99.90;;;;;;5002925;27;93114;-34
2023/01/12 08:18:24;;;;;;;5.05;2.00;;;9.50;99.90;;;;;;4993390;28;94530;-35
2023/01/12 08:20:51;;;;;;;2.05;1.75;;;9.40;99.90;;;;;;4993537;27;94801;-36
2023/01/12 08:23:24;;;;;;;2.20;1.95;;;9.50;99.90;;;;;;4994653;27;93143;-33
2023/01/12 08:25:55;;;;;;;2.08;1.55;;;9.50;99.90;;;;;;4994166;28;94258;-34
2023/01/12 08:28:30;;;;;;;1.92;1.55;;;9.50;99.90;;;;;;4999924;28;94904;-32
2023/01/12 08:30:55;;;;;;;2.95;1.50;;;9.50;99.90;;;;;;5018034;27;94366;-34
2023/01/12 08:33:22;;;;;;;1.65;1.45;;;9.50;99.90;;;;;;5018234;27;94364;-33
2023/01/12 08:35:48;;;;;;;6.32;1.83;;;9.50;99.90;;;;;;5009189;27;93528;-34
2023/01/12 08:38:14;;;;;;;2.42;1.83;;;9.50;99.90;;;;;;5021461;27;94682;-32
2023/01/12 08:44:00;;;;;;;1.63;1.52;;;9.60;99.90;;;;;;5019764;27;92116;-35
2023/01/12 08:46:09;;;;;;;1.77;1.52;;;9.60;99.90;;;;;;5018836;27;94557;-32
2023/01/12 08:48:36;;;;;;;2.75;1.88;;;9.60;99.90;;;;;;5020802;27;94362;-32
2023/01/12 08:51:02;;;;;;;2.85;2.58;;;9.70;99.90;;;;;;5010903;27;94406;-33
2023/01/12 08:53:28;;;;;;;10.65;2.28;;;9.70;99.90;;;;;;5017622;27;93372;-33
2023/01/12 08:55:54;;;;;;;2.60;2.10;;;9.80;99.90;;;;;;5018361;27;92898;-32
2023/01/12 08:58:20;;;;;;;5.35;2.47;;;9.80;99.90;;;;;;5018855;27;95569;-34
2023/01/12 09:00:45;;;;;;;5.85;2.42;;;9.80;99.90;;;;;;5014929;27;95472;-33
2023/01/12 09:03:11;;;;;;;3.95;2.47;;;9.80;99.90;;;;;;5012026;27;92593;-33
2023/01/12 09:05:36;;;;;;;4.25;2.65;;;9.90;99.90;;;;;;5019587;27;92685;-33
2023/01/12 09:08:02;;;;;;;6.93;3.03;;;9.90;99.90;;;;;;5018472;27;94574;-33
2023/01/12 09:10:27;;;;;;;7.40;3.55;;;9.90;99.90;;;;;;5015168;27;95599;-34
2023/01/12 09:12:53;;;;;;;7.45;3.08;;;10.00;99.90;;;;;;5018429;27;93867;-33
2023/01/12 09:15:18;;;;;;;5.82;3.15;;;10.00;99.90;;;;;;5010583;27;92540;-33
2023/01/12 09:17:44;;;;;;;6.90;2.95;;;10.10;99.90;;;;;;4995341;27;95432;-32
2023/01/12 09:20:11;;;;;;;8.48;2.95;;;10.10;99.90;;;;;;4995894;27;94241;-35
2023/01/12 09:22:37;;;;;;;7.28;3.55;;;10.20;99.90;;;;;;4995147;28;94613;-32
2023/01/12 09:25:02;;;;;;;13.40;3.88;;;10.20;99.90;;;;;;4995396;27;92816;-34
2023/01/12 09:27:28;;;;;;;7.85;2.72;;;10.20;99.90;;;;;;4998114;27;94807;-33
2023/01/12 09:29:54;;;;;;;8.48;3.42;;;10.30;99.90;;;;;;4998787;27;94206;-32
2023/01/12 09:32:20;;;;;;;19.00;4.80;;;10.30;99.90;;;;;;4999294;28;92221;-33
2023/01/12 09:34:47;;;;;;;9.52;4.25;;;10.30;99.90;;;;;;4998743;27;94546;-34
2023/01/12 09:37:13;;;;;;;14.02;5.32;;;10.40;99.90;;;;;;5005015;28;93134;-34
2023/01/12 09:39:38;;;;;;;16.10;5.15;;;10.40;99.90;;;;;;5006546;28;94610;-36
2023/01/12 09:47:51;;;;;;;10.85;3.13;;;10.60;99.90;;;;;;4998447;28;95591;-33
2023/01/12 09:50:32;;;;;;;14.73;4.93;;;10.70;99.90;;;;;;4999370;27;96338;-32
2023/01/12 09:53:04;;;;;;;17.38;4.65;;;10.80;99.90;;;;;;4998967;27;92642;-33
2023/01/12 09:56:01;;;;;;;13.20;4.50;;;10.80;99.90;;;;;;4998282;27;92376;-33
2023/01/12 09:59:06;;;;;;;13.43;4.13;;;10.90;99.90;;;;;;4998270;28;94278;-33
2023/01/12 10:01:33;;;;;;;16.15;4.65;;;10.90;99.90;;;;;;4998206;28;94176;-32
2023/01/12 10:04:00;;;;;;;14.18;4.57;;;11.00;99.90;;;;;;5002050;27;92687;-33
2023/01/12 10:06:26;;;;;;;13.18;4.75;;;11.00;99.90;;;;;;5019600;28;91349;-32
2023/01/12 10:09:01;;;;;;;14.75;4.13;;;11.00;99.90;;;;;;5002549;27;94123;-35
2023/01/12 10:11:41;;;;;;;26.95;5.32;;;11.00;99.90;;;;;;4999194;28;94490;-34
2023/01/12 10:14:25;;;;;;;16.17;4.22;;;11.10;99.90;;;;;;4998966;28;93771;-32
2023/01/12 10:16:59;;;;;;;12.27;4.95;;;11.20;99.90;;;;;;4998111;27;92350;-33
2023/01/12 10:19:47;;;;;;;11.30;3.88;;;11.30;99.90;;;;;;4998265;28;94378;-36
2023/01/12 10:22:35;;;;;;;15.77;4.78;;;11.30;99.90;;;;;;5007444;28;94537;-33
2023/01/12 10:25:42;;;;;;;20.88;5.15;;;11.30;99.90;;;;;;5000762;27;92932;-33
2023/01/12 10:28:15;;;;;;;11.68;4.22;;;11.40;99.90;;;;;;4998128;27;93343;-34
2023/01/12 10:30:42;;;;;;;17.63;4.18;;;11.40;99.90;;;;;;4997860;27;94789;-33
2023/01/12 10:33:14;;;;;;;21.90;5.97;;;11.50;99.90;;;;;;4998454;27;94450;-35
2023/01/12 10:35:50;;;;;;;14.85;4.05;;;11.50;99.90;;;;;;4997937;28;94560;-33
2023/01/12 10:38:22;;;;;;;9.85;2.83;;;11.50;99.90;;;;;;5011398;27;92193;-33
2023/01/12 10:41:16;;;;;;;22.05;4.28;;;11.60;99.90;;;;;;4996147;27;96494;-33
2023/01/12 10:43:43;;;;;;;21.15;5.43;;;11.70;99.90;;;;;;4997402;27;95204;-33
2023/01/12 10:46:13;;;;;;;11.57;4.15;;;11.70;99.90;;;;;;4998196;27;93903;-33
2023/01/12 10:48:48;;;;;;;10.50;4.03;;;11.60;99.90;;;;;;4997797;27;94527;-34
2023/01/12 10:51:23;;;;;;;14.65;3.80;;;11.70;99.90;;;;;;4997744;27;94640;-32
2023/01/12 10:53:55;;;;;;;11.35;3.92;;;11.60;99.90;;;;;;4997622;27;93654;-32
2023/01/12 10:56:32;;;;;;;9.77;4.07;;;11.70;99.90;;;;;;4997721;27;93135;-36
2023/01/12 10:59:16;;;;;;;6.50;3.35;;;11.70;99.90;;;;;;4997936;27;93660;-33
2023/01/12 11:01:44;;;;;;;11.65;3.40;;;11.60;99.90;;;;;;4997347;28;93974;-32
2023/01/12 11:04:11;;;;;;;;;;;11.70;99.90;;;;;;4997581;27;94462;-35
2023/01/12 11:06:37;;;;;;;8.48;3.88;;;11.70;99.90;;;;;;4999005;28;93103;-33
2023/01/12 11:09:24;;;;;;;12.23;3.97;;;11.70;99.90;;;;;;4997392;27;93345;-34
2023/01/12 11:11:58;;;;;;;8.65;2.67;;;11.70;99.90;;;;;;4996704;27;94657;-35
2023/01/12 11:14:30;;;;;;;13.32;3.58;;;11.60;99.90;;;;;;4998109;27;94770;-33
2023/01/12 11:17:27;;;;;;;6.55;3.67;;;11.70;99.90;;;;;;5009977;27;94411;-33
2023/01/12 11:19:54;;;;;;;17.25;3.90;;;11.70;99.90;;;;;;4997559;27;92419;-32
2023/01/12 11:22:26;;;;;;;13.55;4.88;;;11.60;99.90;;;;;;4997996;27;94831;-33
2023/01/12 11:25:04;;;;;;;12.57;3.72;;;11.60;99.90;;;;;;4999880;28;94563;-35
2023/01/12 11:27:46;;;;;;;8.75;4.15;;;11.60;99.90;;;;;;5007644;27;93458;-33
2023/01/12 11:30:28;;;;;;;16.42;4.90;;;11.60;99.90;;;;;;4996790;27;93772;-33
2023/01/12 11:33:07;;;;;;;11.13;4.10;;;11.70;99.90;;;;;;4996433;28;96183;-33
2023/01/12 11:35:43;;;;;;;15.60;4.95;;;11.70;99.90;;;;;;4996843;28;96132;-34
2023/01/12 11:38:17;;;;;;;10.90;4.13;;;11.70;99.90;;;;;;4997052;28;94590;-35
2023/01/12 11:40:44;;;;;;;10.43;3.95;;;11.70;99.90;;;;;;4996986;28;93192;-32
2023/01/12 11:46:22;;;;;;;18.08;4.90;;;11.60;99.90;;;;;;4996296;28;94298;-34
2023/01/12 11:48:56;;;;;;;10.07;3.65;;;11.60;99.90;;;;;;5000309;27;93352;-34
2023/01/12 11:51:22;;;;;;;14.00;3.97;;;11.70;99.90;;;;;;5006668;28;93174;-34
2023/01/12 11:53:48;;;;;;;10.98;4.20;;;11.70;99.90;;;;;;4996432;27;95373;-34
2023/01/12 11:56:34;;;;;;;16.48;4.28;;;11.70;99.90;;;;;;4996743;27;94579;-33
2023/01/12 11:59:17;;;;;;;14.40;4.32;;;11.70;99.90;;;;;;4995981;27;95372;-35
2023/01/12 12:02:02;;;;;;;12.68;4.53;;;11.80;99.90;;;;;;4996581;27;92776;-32
2023/01/12 12:04:41;;;;;;;12.65;4.35;;;11.80;99.90;;;;;;4996692;27;94991;-32
2023/01/12 12:07:21;;;;;;;14.60;5.05;;;11.90;99.90;;;;;;4996582;27;94767;-33
2023/01/12 12:09:56;;;;;;;15.23;5.93;;;11.80;99.90;;;;;;4996316;28;94557;-33
2023/01/12 12:13:00;;;;;;;15.52;5.32;;;11.80;99.90;;;;;;4996486;27;92523;-33
2023/01/12 12:15:55;;;;;;;13.43;3.80;;;11.90;99.90;;;;;;5005046;27;94750;-33
2023/01/12 12:18:48;;;;;;;13.82;4.68;;;11.90;99.90;;;;;;4969919;27;93998;-33
2023/01/12 12:21:29;;;;;;;9.57;3.55;;;11.90;99.90;;;;;;4996987;28;94447;-33
2023/01/12 12:24:16;;;;;;;11.57;4.28;;;11.90;99.90;;;;;;4996358;27;94315;-33
2023/01/12 12:26:52;;;;;;;14.52;4.40;;;11.80;99.90;;;;;;4995702;27;95749;-33
2023/01/12 12:29:18;;;;;;;16.77;4.82;;;11.80;99.90;;;;;;5007388;28;95658;-34
2023/01/12 12:31:49;;;;;;;13.93;4.40;;;11.80;99.90;;;;;;5000013;27;92568;-33
2023/01/12 12:34:26;;;;;;;11.00;3.85;;;11.80;99.90;;;;;;4996011;27;93350;-35
2023/01/12 12:37:05;;;;;;;8.07;3.97;;;11.80;99.90;;;;;;4995608;28;94730;-33
2023/01/12 12:39:48;;;;;;;17.23;4.22;;;11.80;99.90;;;;;;4997155;28;94075;-32
2023/01/12 12:45:29;;;;;;;13.73;3.90;;;11.80;99.90;;;;;;5010043;27;91382;-33
2023/01/12 12:48:16;;;;;;;18.73;5.63;;;11.70;99.90;;;;;;5015432;28;94702;-33
2023/01/12 12:50:51;;;;;;;16.02;4.80;;;11.70;99.90;;;;;;5023251;27;94431;-34
2023/01/12 12:53:37;;;;;;;13.27;5.05;;;11.60;99.90;;;;;;5025680;27;95603;-32
2023/01/12 12:56:08;;;;;;;15.07;5.10;;;11.40;99.90;;;;;;5025072;27;94484;-35
2023/01/12 12:58:48;;;;;;;12.35;3.85;;;11.40;99.90;;;;;;5027536;27;94546;-34
2023/01/12 13:01:22;;;;;;;13.10;4.55;;;11.30;99.90;;;;;;5023826;27;93659;-32
2023/01/12 13:03:53;;;;;;;16.33;4.55;;;11.30;99.90;;;;;;5027171;27;93361;-33
2023/01/12 13:06:29;;;;;;;19.45;5.95;;;11.30;99.90;;;;;;5003468;27;93420;-32
2023/01/12 13:09:04;;;;;;;19.90;5.75;;;11.20;99.90;;;;;;5000229;27;94956;-33
2023/01/12 13:11:45;;;;;;;20.98;4.93;;;11.30;99.90;;;;;;4999572;27;94557;-33
2023/01/12 13:14:37;;;;;;;18.60;4.72;;;11.30;99.90;;;;;;4999241;28;92297;-34
2023/01/12 13:17:17;;;;;;;9.02;4.68;;;11.50;99.90;;;;;;4999596;28;93062;-34
2023/01/12 13:19:59;;;;;;;18.02;5.57;;;11.40;99.90;;;;;;5001022;28;95730;-33
2023/01/12 13:22:49;;;;;;;20.88;5.43;;;11.40;99.90;;;;;;5035087;27;94401;-32
2023/01/12 13:25:15;;;;;;;9.35;4.32;;;11.50;99.90;;;;;;4999267;28;94448;-33
2023/01/12 13:28:01;;;;;;;12.35;4.28;;;11.60;99.90;;;;;;4998956;27;94612;-35
2023/01/12 13:30:27;;;;;;;14.52;3.90;;;11.70;99.90;;;;;;4999148;27;94514;-33
2023/01/12 13:33:13;;;;;;;11.10;4.85;;;11.70;99.90;;;;;;4996701;28;94425;-33
2023/01/12 13:35:45;;;;;;;18.08;4.50;;;11.70;99.90;;;;;;5006942;28;94374;-34
2023/01/12 13:38:17;;;;;;;20.13;5.35;;;11.70;99.90;;;;;;5013334;27;93854;-33
2023/01/12 13:40:43;;;;;;;18.20;4.80;;;11.70;99.90;;;;;;5016067;28;96078;-33
2023/01/12 13:43:29;;;;;;;19.75;4.55;;;11.60;99.90;;;;;;5017613;27;95252;-34